createdAt,value
2022-08-12T00:00:09.531Z,19.21
2022-08-12T00:01:09.488Z,19.17
2022-08-12T00:02:09.503Z,19.11
2022-08-12T00:03:09.543Z,19.06
2022-08-12T00:04:09.529Z,19.01
2022-08-12T00:05:09.470Z,18.98
2022-08-12T00:06:09.492Z,18.99
2022-08-12T00:07:09.443Z,18.95
2022-08-12T00:08:09.408Z,18.92
2022-08-12T00:09:09.418Z,18.92
2022-08-12T00:10:09.424Z,18.86
2022-08-12T00:11:12.221Z,18.80
2022-08-12T00:12:09.465Z,18.80
2022-08-12T00:13:09.358Z,18.79
2022-08-12T00:14:09.339Z,18.79
2022-08-12T00:15:09.382Z,18.80
2022-08-12T00:16:09.335Z,18.79
2022-08-12T00:17:09.301Z,18.76
2022-08-12T00:18:09.300Z,18.70
2022-08-12T00:19:09.282Z,18.61
2022-08-12T00:20:09.303Z,18.54
2022-08-12T00:21:09.283Z,18.49
2022-08-12T00:22:09.269Z,18.49
2022-08-12T00:23:09.231Z,18.49
2022-08-12T00:24:09.235Z,18.44
2022-08-12T00:25:09.223Z,18.40
2022-08-12T00:26:22.291Z,18.37
2022-08-12T00:27:10.222Z,18.39
2022-08-12T00:28:09.197Z,18.39
2022-08-12T00:29:09.165Z,18.37
2022-08-12T00:30:09.184Z,18.37
2022-08-12T00:31:09.154Z,18.36
2022-08-12T00:32:09.147Z,18.37
2022-08-12T00:33:09.135Z,18.36
2022-08-12T00:34:09.124Z,18.33
2022-08-12T00:35:09.210Z,18.33
2022-08-12T00:36:09.085Z,18.33
2022-08-12T00:37:12.959Z,18.31
2022-08-12T00:38:09.116Z,18.27
2022-08-12T00:39:09.047Z,18.22
2022-08-12T00:40:10.745Z,18.18
2022-08-12T00:41:09.026Z,18.13
2022-08-12T00:42:09.030Z,18.10
2022-08-12T00:43:09.024Z,18.10
2022-08-12T00:44:09.037Z,18.15
2022-08-12T00:45:08.997Z,18.10
2022-08-12T00:46:08.980Z,18.07
2022-08-12T00:47:09.405Z,18.03
2022-08-12T00:48:09.985Z,18.07
2022-08-12T00:49:08.976Z,18.09
2022-08-12T00:50:08.918Z,18.09
2022-08-12T00:51:08.916Z,18.06
2022-08-12T00:52:08.908Z,18.04
2022-08-12T00:53:08.888Z,17.99
2022-08-12T00:54:08.910Z,17.97
2022-08-12T00:55:08.858Z,17.91
2022-08-12T00:56:08.849Z,17.89
2022-08-12T00:57:08.899Z,17.91
2022-08-12T00:58:08.859Z,17.91
2022-08-12T00:59:08.823Z,17.89
2022-08-12T01:00:08.892Z,17.87
2022-08-12T01:01:09.030Z,17.81
2022-08-12T01:02:11.632Z,17.81
2022-08-12T01:03:08.780Z,17.82
2022-08-12T01:04:08.773Z,17.82
2022-08-12T01:05:08.770Z,17.85
2022-08-12T01:06:08.782Z,17.84
2022-08-12T01:07:08.734Z,17.81
2022-08-12T01:08:08.726Z,17.79
2022-08-12T01:09:08.703Z,17.76
2022-08-12T01:10:08.696Z,17.74
2022-08-12T01:11:08.719Z,17.76
2022-08-12T01:12:08.663Z,17.74
2022-08-12T01:13:19.041Z,17.71
2022-08-12T01:14:09.653Z,17.69
2022-08-12T01:15:08.642Z,17.64
2022-08-12T01:16:08.643Z,17.62
2022-08-12T01:17:08.644Z,17.62
2022-08-12T01:18:08.594Z,17.57
2022-08-12T01:19:08.584Z,17.51
2022-08-12T01:20:08.575Z,17.51
2022-08-12T01:21:08.586Z,17.50
2022-08-12T01:22:08.556Z,17.46
2022-08-12T01:23:08.570Z,17.43
2022-08-12T01:24:29.465Z,17.40
2022-08-12T01:25:09.728Z,17.35
2022-08-12T01:26:08.506Z,17.32
2022-08-12T01:27:08.509Z,17.29
2022-08-12T01:28:08.488Z,17.25
2022-08-12T01:29:08.609Z,17.28
2022-08-12T01:30:08.457Z,17.26
2022-08-12T01:31:09.239Z,17.26
2022-08-12T01:32:08.446Z,17.15
2022-08-12T01:33:08.425Z,17.11
2022-08-12T01:34:36.517Z,17.08
2022-08-12T01:35:09.428Z,17.06
2022-08-12T01:36:08.988Z,17.00
2022-08-12T01:37:08.387Z,16.96
2022-08-12T01:38:08.368Z,16.92
2022-08-12T01:39:08.357Z,16.90
2022-08-12T01:40:33.650Z,16.93
2022-08-12T01:41:09.349Z,16.92
2022-08-12T01:42:08.324Z,16.95
2022-08-12T01:43:08.329Z,16.95
2022-08-12T01:44:08.290Z,16.96
2022-08-12T01:45:08.313Z,16.96
2022-08-12T01:46:08.294Z,16.93
2022-08-12T01:47:08.259Z,16.92
2022-08-12T01:48:08.252Z,16.92
2022-08-12T01:49:08.240Z,16.88
2022-08-12T01:50:08.236Z,16.81
2022-08-12T01:51:08.270Z,16.77
2022-08-12T01:52:21.590Z,16.75
2022-08-12T01:53:09.207Z,16.71
2022-08-12T01:54:08.184Z,16.73
2022-08-12T01:55:08.171Z,16.73
2022-08-12T01:56:08.161Z,16.67
2022-08-12T01:57:08.264Z,16.65
2022-08-12T01:58:08.143Z,16.65
2022-08-12T01:59:08.142Z,16.63
2022-08-12T02:00:08.123Z,16.62
2022-08-12T02:01:08.136Z,16.62
2022-08-12T02:02:08.137Z,16.62
2022-08-12T02:03:08.109Z,16.60
2022-08-12T02:04:08.095Z,16.56
2022-08-12T02:05:08.074Z,16.52
2022-08-12T02:06:08.074Z,16.49
2022-08-12T02:07:08.076Z,16.49
2022-08-12T02:08:08.339Z,16.48
2022-08-12T02:09:08.048Z,16.48
2022-08-12T02:10:08.005Z,16.45
2022-08-12T02:11:08.699Z,16.48
2022-08-12T02:12:08.549Z,16.49
2022-08-12T02:13:08.033Z,16.53
2022-08-12T02:14:07.995Z,16.53
2022-08-12T02:15:07.956Z,16.60
2022-08-12T02:16:07.975Z,16.62
2022-08-12T02:17:07.947Z,16.62
2022-08-12T02:18:07.953Z,16.65
2022-08-12T02:19:22.069Z,16.65
2022-08-12T02:20:08.916Z,16.63
2022-08-12T02:21:07.887Z,16.63
2022-08-12T02:22:07.867Z,16.62
2022-08-12T02:23:07.847Z,16.60
2022-08-12T02:24:07.837Z,16.63
2022-08-12T02:25:07.850Z,16.60
2022-08-12T02:26:07.819Z,16.58
2022-08-12T02:27:07.809Z,16.56
2022-08-12T02:28:08.062Z,16.55
2022-08-12T02:29:07.793Z,16.52
2022-08-12T02:30:07.768Z,16.45
2022-08-12T02:31:07.786Z,16.42
2022-08-12T02:32:07.769Z,16.38
2022-08-12T02:33:07.731Z,16.41
2022-08-12T02:34:07.729Z,16.42
2022-08-12T02:35:07.722Z,16.44
2022-08-12T02:36:07.732Z,16.42
2022-08-12T02:37:07.680Z,16.49
2022-08-12T02:38:07.979Z,16.53
2022-08-12T02:39:07.715Z,16.53
2022-08-12T02:40:07.652Z,16.53
2022-08-12T02:41:07.640Z,16.52
2022-08-12T02:42:07.713Z,16.52
2022-08-12T02:43:07.616Z,16.50
2022-08-12T02:44:07.609Z,16.49
2022-08-12T02:45:07.604Z,16.49
2022-08-12T02:46:13.210Z,16.49
2022-08-12T02:47:59.835Z,16.44
2022-08-12T02:48:08.570Z,16.42
2022-08-12T02:49:07.552Z,16.41
2022-08-12T02:50:07.565Z,16.37
2022-08-12T02:51:07.527Z,16.34
2022-08-12T02:52:07.515Z,16.34
2022-08-12T02:53:07.525Z,16.33
2022-08-12T02:54:07.515Z,16.27
2022-08-12T02:55:07.473Z,16.23
2022-08-12T02:56:07.470Z,16.23
2022-08-12T02:57:07.458Z,16.22
2022-08-12T02:58:11.946Z,16.22
2022-08-12T02:59:08.443Z,16.23
2022-08-12T03:00:07.426Z,16.20
2022-08-12T03:01:07.460Z,16.16
2022-08-12T03:02:07.395Z,16.11
2022-08-12T03:03:07.393Z,16.06
2022-08-12T03:04:07.429Z,15.99
2022-08-12T03:05:08.385Z,15.99
2022-08-12T03:06:07.367Z,15.96
2022-08-12T03:07:07.355Z,15.97
2022-08-12T03:08:07.352Z,15.99
2022-08-12T03:09:07.345Z,16.00
2022-08-12T03:10:11.362Z,16.01
2022-08-12T03:11:11.903Z,16.04
2022-08-12T03:12:08.287Z,16.03
2022-08-12T03:13:07.503Z,16.04
2022-08-12T03:14:07.266Z,16.04
2022-08-12T03:15:07.286Z,16.03
2022-08-12T03:16:07.287Z,16.03
2022-08-12T03:17:07.228Z,15.99
2022-08-12T03:18:26.378Z,16.01
2022-08-12T03:19:08.202Z,16.06
2022-08-12T03:20:09.542Z,16.11
2022-08-12T03:21:07.208Z,16.11
2022-08-12T03:22:09.673Z,16.12
2022-08-12T03:23:07.150Z,16.09
2022-08-12T03:24:07.153Z,16.07
2022-08-12T03:25:07.159Z,16.07
2022-08-12T03:26:07.111Z,16.04
2022-08-12T03:27:07.142Z,16.03
2022-08-12T03:28:07.093Z,15.96
2022-08-12T03:29:07.160Z,15.93
2022-08-12T03:30:07.080Z,15.88
2022-08-12T03:31:07.062Z,15.86
2022-08-12T03:32:07.033Z,15.88
2022-08-12T03:33:07.101Z,15.88
2022-08-12T03:34:07.022Z,15.86
2022-08-12T03:35:07.013Z,15.82
2022-08-12T03:36:06.993Z,15.79
2022-08-12T03:37:06.992Z,15.75
2022-08-12T03:38:07.912Z,15.72
2022-08-12T03:39:06.992Z,15.72
2022-08-12T03:40:07.027Z,15.72
2022-08-12T03:41:06.934Z,15.68
2022-08-12T03:42:06.965Z,15.74
2022-08-12T03:43:06.923Z,15.68
2022-08-12T03:44:06.907Z,15.68
2022-08-12T03:45:06.914Z,15.67
2022-08-12T03:46:06.875Z,15.64
2022-08-12T03:47:06.863Z,15.60
2022-08-12T03:48:06.879Z,15.59
2022-08-12T03:49:06.865Z,15.57
2022-08-12T03:50:06.866Z,15.56
2022-08-12T03:51:06.861Z,15.54
2022-08-12T03:52:06.824Z,15.56
2022-08-12T03:53:06.800Z,15.57
2022-08-12T03:54:06.782Z,15.57
2022-08-12T03:55:06.770Z,15.56
2022-08-12T03:56:06.805Z,15.54
2022-08-12T03:57:06.745Z,15.54
2022-08-12T03:58:06.791Z,15.56
2022-08-12T03:59:06.717Z,15.61
2022-08-12T04:00:06.725Z,15.64
2022-08-12T04:01:06.728Z,15.64
2022-08-12T04:02:06.746Z,15.61
2022-08-12T04:03:08.788Z,15.60
2022-08-12T04:04:07.668Z,15.61
2022-08-12T04:05:06.639Z,15.61
2022-08-12T04:06:06.640Z,15.60
2022-08-12T04:07:06.618Z,15.59
2022-08-12T04:08:06.652Z,15.56
2022-08-12T04:09:16.364Z,15.52
2022-08-12T04:10:07.588Z,15.54
2022-08-12T04:11:06.593Z,15.52
2022-08-12T04:12:06.561Z,15.51
2022-08-12T04:13:06.540Z,15.51
2022-08-12T04:14:06.566Z,15.51
2022-08-12T04:15:06.530Z,15.49
2022-08-12T04:16:06.520Z,15.48
2022-08-12T04:17:06.503Z,15.51
2022-08-12T04:18:08.022Z,15.51
2022-08-12T04:19:06.501Z,15.48
2022-08-12T04:20:06.472Z,15.49
2022-08-12T04:21:06.450Z,15.51
2022-08-12T04:22:06.460Z,15.49
2022-08-12T04:23:06.431Z,15.51
2022-08-12T04:24:06.423Z,15.56
2022-08-12T04:25:06.454Z,15.57
2022-08-12T04:26:06.394Z,15.57
2022-08-12T04:27:06.390Z,15.54
2022-08-12T04:28:13.321Z,15.54
2022-08-12T04:29:07.375Z,15.54
2022-08-12T04:30:29.582Z,15.54
2022-08-12T04:31:07.339Z,15.52
2022-08-12T04:32:06.322Z,15.52
2022-08-12T04:33:06.312Z,15.49
2022-08-12T04:34:06.293Z,15.46
2022-08-12T04:35:06.304Z,15.46
2022-08-12T04:36:06.306Z,15.45
2022-08-12T04:37:06.293Z,15.43
2022-08-12T04:38:06.281Z,15.43
2022-08-12T04:39:06.233Z,15.46
2022-08-12T04:40:06.226Z,15.49
2022-08-12T04:41:06.216Z,15.54
2022-08-12T04:42:06.255Z,15.57
2022-08-12T04:43:06.196Z,15.60
2022-08-12T04:44:07.176Z,15.63
2022-08-12T04:45:06.184Z,15.61
2022-08-12T04:46:06.155Z,15.61
2022-08-12T04:47:06.155Z,15.64
2022-08-12T04:48:06.155Z,15.64
2022-08-12T04:49:06.125Z,15.61
2022-08-12T04:50:34.882Z,15.60
2022-08-12T04:51:07.096Z,15.59
2022-08-12T04:52:06.077Z,15.57
2022-08-12T04:53:06.116Z,15.60
2022-08-12T04:54:06.055Z,15.61
2022-08-12T04:55:06.057Z,15.64
2022-08-12T04:56:06.067Z,15.66
2022-08-12T04:57:06.111Z,15.70
2022-08-12T04:58:06.084Z,15.75
2022-08-12T04:59:06.028Z,15.76
2022-08-12T05:00:06.014Z,15.79
2022-08-12T05:01:05.967Z,15.84
2022-08-12T05:02:06.013Z,15.84
2022-08-12T05:03:06.986Z,15.88
2022-08-12T05:04:06.739Z,15.92
2022-08-12T05:05:05.962Z,15.92
2022-08-12T05:06:05.910Z,15.94
2022-08-12T05:07:05.902Z,15.94
2022-08-12T05:08:05.903Z,15.96
2022-08-12T05:09:11.061Z,15.96
2022-08-12T05:10:06.893Z,15.99
2022-08-12T05:11:05.876Z,16.00
2022-08-12T05:12:05.853Z,16.04
2022-08-12T05:13:05.860Z,16.06
2022-08-12T05:14:05.811Z,16.11
2022-08-12T05:15:19.380Z,16.12
2022-08-12T05:16:09.270Z,16.20
2022-08-12T05:17:06.582Z,16.23
2022-08-12T05:18:16.811Z,16.27
2022-08-12T05:19:12.826Z,16.31
2022-08-12T05:20:06.751Z,16.37
2022-08-12T05:21:05.792Z,16.42
2022-08-12T05:22:05.779Z,16.48
2022-08-12T05:23:11.809Z,16.53
2022-08-12T05:24:06.703Z,16.65
2022-08-12T05:25:05.687Z,16.71
2022-08-12T05:26:05.693Z,16.77
2022-08-12T05:27:05.695Z,16.80
2022-08-12T05:28:05.675Z,16.85
2022-08-12T05:30:05.427Z,16.88
2022-08-12T05:30:09.181Z,16.92
2022-08-12T05:31:05.612Z,16.98
2022-08-12T05:32:05.645Z,17.04
2022-08-12T05:33:05.656Z,17.08
2022-08-12T05:34:05.587Z,17.13
2022-08-12T05:35:05.567Z,17.17
2022-08-12T05:36:05.584Z,17.23
2022-08-12T05:37:05.565Z,17.28
2022-08-12T05:38:05.553Z,17.32
2022-08-12T05:39:05.606Z,17.38
2022-08-12T05:40:10.590Z,17.41
2022-08-12T05:41:06.510Z,17.43
2022-08-12T05:42:05.532Z,17.47
2022-08-12T05:43:05.496Z,17.50
2022-08-12T05:44:05.535Z,17.57
2022-08-12T05:45:05.512Z,17.66
2022-08-12T05:46:05.450Z,17.71
2022-08-12T05:47:05.439Z,17.76
2022-08-12T05:48:05.447Z,17.81
2022-08-12T05:49:05.508Z,17.85
2022-08-12T05:50:05.413Z,17.91
2022-08-12T05:51:05.418Z,17.97
2022-08-12T05:52:05.385Z,18.04
2022-08-12T05:53:05.405Z,18.17
2022-08-12T05:54:05.359Z,18.27
2022-08-12T05:55:05.351Z,18.37
2022-08-12T05:56:05.331Z,18.44
2022-08-12T05:57:05.340Z,18.47
2022-08-12T05:58:05.310Z,18.50
2022-08-12T05:59:05.300Z,18.57
2022-08-12T06:00:05.288Z,18.65
2022-08-12T06:02:10.726Z,18.79
2022-08-12T06:02:10.885Z,18.90
2022-08-12T06:03:06.407Z,18.98
2022-08-12T06:04:05.240Z,19.06
2022-08-12T06:05:05.239Z,19.15
2022-08-12T06:06:05.222Z,19.24
2022-08-12T06:07:59.255Z,19.36
2022-08-12T06:08:06.205Z,19.46
2022-08-12T06:09:05.196Z,19.50
2022-08-12T06:10:05.175Z,19.57
2022-08-12T06:11:05.183Z,19.65
2022-08-12T06:12:06.564Z,19.70
2022-08-12T06:13:05.191Z,19.79
2022-08-12T06:14:11.990Z,19.86
2022-08-12T06:15:06.125Z,19.93
2022-08-12T06:16:05.100Z,19.91
2022-08-12T06:17:05.090Z,19.97
2022-08-12T06:18:05.088Z,19.98
2022-08-12T06:19:06.094Z,20.05
2022-08-12T06:20:28.201Z,20.16
2022-08-12T06:21:06.047Z,20.25
2022-08-12T06:22:05.053Z,20.24
2022-08-12T06:23:05.026Z,20.24
2022-08-12T06:24:05.017Z,20.21
2022-08-12T06:25:05.031Z,20.23
2022-08-12T06:26:04.987Z,20.31
2022-08-12T06:27:04.990Z,20.38
2022-08-12T06:28:08.074Z,20.35
2022-08-12T06:29:05.043Z,20.43
2022-08-12T06:30:09.134Z,20.61
2022-08-12T06:31:25.267Z,20.77
2022-08-12T06:32:05.935Z,20.84
2022-08-12T06:33:18.363Z,20.74
2022-08-12T06:35:25.526Z,20.65
2022-08-12T06:35:26.065Z,20.61
2022-08-12T06:36:05.880Z,20.71
2022-08-12T06:37:04.860Z,20.86
2022-08-12T06:38:04.860Z,21.01
2022-08-12T06:39:04.863Z,21.06
2022-08-12T06:40:05.864Z,21.11
2022-08-12T06:41:05.502Z,21.27
2022-08-12T06:42:32.540Z,21.34
2022-08-12T06:43:05.815Z,21.36
2022-08-12T06:44:07.805Z,21.44
2022-08-12T06:45:05.539Z,21.56
2022-08-12T06:46:04.774Z,21.60
2022-08-12T06:47:04.868Z,21.64
2022-08-12T06:48:04.733Z,21.64
2022-08-12T06:49:04.727Z,21.64
2022-08-12T06:50:04.737Z,21.72
2022-08-12T06:51:04.737Z,21.83
2022-08-12T06:52:04.911Z,21.95
2022-08-12T06:53:05.033Z,22.04
2022-08-12T06:54:04.668Z,22.10
2022-08-12T06:55:04.656Z,21.98
2022-08-12T06:56:06.359Z,22.02
2022-08-12T06:57:57.174Z,22.10
2022-08-12T06:58:10.394Z,22.13
2022-08-12T06:59:05.675Z,22.12
2022-08-12T07:00:04.613Z,22.09
2022-08-12T07:01:04.633Z,22.13
2022-08-12T07:02:04.578Z,22.12
2022-08-12T07:03:22.840Z,22.20
2022-08-12T07:04:26.415Z,22.35
2022-08-12T07:05:05.598Z,22.52
2022-08-12T07:06:04.553Z,22.49
2022-08-12T07:07:04.530Z,22.34
2022-08-12T07:08:05.085Z,22.25
2022-08-12T07:09:05.513Z,22.20
2022-08-12T07:10:08.030Z,22.22
2022-08-12T07:11:04.487Z,22.32
2022-08-12T07:12:04.543Z,22.41
2022-08-12T07:13:04.451Z,22.41
2022-08-12T07:14:12.995Z,22.46
2022-08-12T07:15:05.445Z,22.59
2022-08-12T07:16:04.424Z,22.65
2022-08-12T07:17:04.404Z,22.68
2022-08-12T07:18:04.440Z,22.69
2022-08-12T07:19:04.372Z,22.80
2022-08-12T07:20:04.803Z,22.97
2022-08-12T07:21:04.382Z,23.15
2022-08-12T07:22:04.361Z,23.35
2022-08-12T07:23:04.338Z,23.53
2022-08-12T07:24:04.356Z,23.67
2022-08-12T07:25:04.315Z,23.71
2022-08-12T07:26:04.350Z,23.79
2022-08-12T07:27:04.276Z,23.86
2022-08-12T07:28:04.268Z,23.95
2022-08-12T07:29:05.255Z,23.92
2022-08-12T07:30:05.292Z,23.85
2022-08-12T07:31:04.238Z,23.79
2022-08-12T07:32:04.247Z,23.75
2022-08-12T07:33:04.245Z,23.77
2022-08-12T07:34:04.277Z,23.83
2022-08-12T07:35:04.306Z,23.98
2022-08-12T07:36:04.177Z,24.16
2022-08-12T07:37:04.179Z,24.08
2022-08-12T07:38:04.253Z,24.07
2022-08-12T07:39:04.141Z,24.17
2022-08-12T07:40:04.177Z,24.34
2022-08-12T07:41:04.147Z,24.53
2022-08-12T07:42:04.112Z,24.67
2022-08-12T07:43:04.122Z,24.83
2022-08-12T07:44:04.907Z,24.91
2022-08-12T07:45:04.078Z,25.01
2022-08-12T07:46:04.066Z,25.15
2022-08-12T07:47:04.074Z,25.31
2022-08-12T07:48:04.068Z,25.49
2022-08-12T07:49:04.040Z,25.62
2022-08-12T07:50:06.627Z,25.77
2022-08-12T07:51:04.234Z,25.89
2022-08-12T07:52:04.044Z,26.04
2022-08-12T07:53:04.041Z,26.21
2022-08-12T07:54:04.021Z,26.35
2022-08-12T07:55:03.984Z,26.42
2022-08-12T07:56:04.039Z,26.46
2022-08-12T07:57:04.001Z,26.58
2022-08-12T07:58:04.008Z,26.67
2022-08-12T07:59:03.939Z,26.65
2022-08-12T08:00:03.925Z,26.47
2022-08-12T08:01:03.959Z,26.42
2022-08-12T08:02:04.922Z,26.31
2022-08-12T08:03:03.864Z,26.36
2022-08-12T08:04:03.928Z,26.39
2022-08-12T08:05:03.847Z,26.35
2022-08-12T08:06:03.880Z,26.52
2022-08-12T08:07:03.839Z,26.76
2022-08-12T08:08:03.807Z,26.96
2022-08-12T08:09:03.797Z,27.02
2022-08-12T08:10:03.789Z,27.10
2022-08-12T08:11:04.387Z,26.80
2022-08-12T08:12:03.768Z,26.77
2022-08-12T08:13:03.758Z,26.91
2022-08-12T08:14:03.759Z,27.10
2022-08-12T08:15:03.726Z,27.23
2022-08-12T08:16:04.269Z,27.28
2022-08-12T08:17:03.779Z,27.35
2022-08-12T08:18:03.712Z,27.43
2022-08-12T08:19:03.719Z,27.26
2022-08-12T08:20:04.538Z,27.13
2022-08-12T08:21:03.663Z,27.26
2022-08-12T08:22:03.708Z,27.42
2022-08-12T08:23:03.644Z,27.61
2022-08-12T08:24:05.411Z,27.59
2022-08-12T08:25:03.613Z,27.61
2022-08-12T08:26:04.604Z,27.67
2022-08-12T08:27:03.593Z,27.74
2022-08-12T08:28:03.748Z,27.77
2022-08-12T08:29:03.571Z,27.67
2022-08-12T08:30:03.570Z,27.64
2022-08-12T08:31:03.543Z,27.69
2022-08-12T08:32:03.527Z,27.64
2022-08-12T08:33:15.561Z,27.74
2022-08-12T08:34:27.704Z,27.84
2022-08-12T08:35:04.501Z,27.99
2022-08-12T08:36:03.486Z,28.10
2022-08-12T08:37:06.773Z,28.17
2022-08-12T08:38:03.466Z,28.21
2022-08-12T08:39:03.485Z,28.16
2022-08-12T08:40:03.469Z,27.86
2022-08-12T08:41:03.451Z,27.73
2022-08-12T08:42:15.603Z,27.57
2022-08-12T08:43:04.427Z,27.69
2022-08-12T08:44:03.431Z,27.66
2022-08-12T08:45:03.391Z,27.79
2022-08-12T08:46:03.406Z,27.92
2022-08-12T08:47:03.359Z,28.07
2022-08-12T08:48:03.368Z,28.01
2022-08-12T08:49:03.352Z,27.98
2022-08-12T08:50:03.371Z,28.11
2022-08-12T08:51:04.792Z,28.16
2022-08-12T08:52:03.310Z,28.29
2022-08-12T08:53:03.293Z,28.32
2022-08-12T08:54:03.290Z,28.21
2022-08-12T08:55:03.332Z,28.26
2022-08-12T08:56:05.557Z,28.28
2022-08-12T08:57:03.287Z,28.48
2022-08-12T08:58:03.260Z,28.59
2022-08-12T08:59:04.687Z,28.60
2022-08-12T09:00:03.244Z,28.58
2022-08-12T09:01:03.233Z,28.65
2022-08-12T09:02:03.295Z,28.65
2022-08-12T09:03:03.185Z,28.66
2022-08-12T09:05:12.607Z,28.66
2022-08-12T09:05:13.031Z,28.54
2022-08-12T09:06:04.173Z,28.69
2022-08-12T09:09:13.190Z,28.53
2022-08-12T09:10:04.297Z,28.63
2022-08-12T09:11:03.127Z,28.54
2022-08-12T09:12:10.746Z,28.50
2022-08-12T09:13:06.130Z,28.36
2022-08-12T09:14:10.630Z,28.32
2022-08-12T09:15:07.111Z,28.22
2022-08-12T09:16:04.100Z,28.09
2022-08-12T09:17:03.028Z,28.23
2022-08-12T09:18:03.050Z,28.36
2022-08-12T09:19:03.026Z,28.59
2022-08-12T09:20:02.998Z,28.77
2022-08-12T09:21:02.984Z,28.88
2022-08-12T09:22:02.991Z,28.73
2022-08-12T09:23:08.074Z,28.75
2022-08-12T09:24:07.583Z,28.84
2022-08-12T09:25:06.239Z,28.93
2022-08-12T09:26:04.385Z,29.00
2022-08-12T09:27:02.965Z,28.88
2022-08-12T09:28:04.896Z,29.04
2022-08-12T09:29:02.912Z,29.06
2022-08-12T09:30:11.537Z,29.01
2022-08-12T09:31:03.880Z,29.03
2022-08-12T09:32:08.322Z,29.18
2022-08-12T09:33:14.510Z,29.26
2022-08-12T09:34:25.390Z,29.41
2022-08-12T09:35:03.835Z,29.55
2022-08-12T09:36:05.021Z,29.56
2022-08-12T09:37:19.965Z,29.55
2022-08-12T09:38:03.811Z,29.70
2022-08-12T09:39:02.791Z,29.78
2022-08-12T09:41:01.467Z,29.43
2022-08-12T09:42:09.865Z,29.26
2022-08-12T09:42:32.791Z,29.11
2022-08-12T09:43:17.146Z,28.54
2022-08-12T09:44:05.153Z,28.72
2022-08-12T09:45:17.589Z,28.85
2022-08-12T09:46:14.124Z,28.88
2022-08-12T09:47:03.692Z,29.08
2022-08-12T09:48:03.680Z,29.10
2022-08-12T09:49:03.876Z,28.78
2022-08-12T09:50:02.683Z,28.82
2022-08-12T09:51:02.663Z,28.87
2022-08-12T09:52:02.681Z,28.93
2022-08-12T09:53:04.000Z,28.81
2022-08-12T09:54:08.824Z,28.85
2022-08-12T09:55:03.803Z,29.08
2022-08-12T09:56:39.669Z,29.16
2022-08-12T09:58:46.494Z,29.13
2022-08-12T09:58:46.610Z,29.25
2022-08-12T09:59:03.584Z,29.45
2022-08-12T10:00:17.381Z,29.72
2022-08-12T10:01:06.470Z,29.78
2022-08-12T10:02:45.045Z,29.70
2022-08-12T10:03:04.064Z,29.59
2022-08-12T10:04:03.902Z,29.70
2022-08-12T10:05:02.515Z,29.86
2022-08-12T10:06:26.563Z,29.93
2022-08-12T10:07:03.474Z,29.81
2022-08-12T10:08:02.561Z,29.62
2022-08-12T10:09:02.446Z,29.43
2022-08-12T10:10:02.455Z,29.33
2022-08-12T10:11:02.417Z,29.47
2022-08-12T10:12:11.347Z,29.74
2022-08-12T10:13:09.264Z,29.89
2022-08-12T10:14:03.401Z,30.03
2022-08-12T10:15:02.530Z,30.00
2022-08-12T10:16:05.635Z,29.55
2022-08-12T10:17:02.389Z,29.71
2022-08-12T10:18:06.776Z,29.92
2022-08-12T10:19:03.354Z,30.11
2022-08-12T10:20:02.319Z,30.29
2022-08-12T10:21:02.299Z,30.29
2022-08-12T10:22:02.310Z,29.84
2022-08-12T10:23:03.674Z,29.74
2022-08-12T10:24:02.292Z,29.47
2022-08-12T10:25:02.251Z,29.49
2022-08-12T10:26:38.057Z,29.66
2022-08-12T10:27:05.673Z,29.49
2022-08-12T10:28:04.599Z,29.41
2022-08-12T10:29:03.499Z,29.70
2022-08-12T10:30:40.425Z,30.02
2022-08-12T10:31:05.168Z,29.82
2022-08-12T10:32:20.933Z,29.78
2022-08-12T10:33:03.394Z,29.75
2022-08-12T10:34:05.044Z,29.70
2022-08-12T10:35:02.206Z,29.41
2022-08-12T10:36:02.187Z,29.45
2022-08-12T10:37:22.517Z,29.63
2022-08-12T10:38:37.371Z,29.89
2022-08-12T10:39:03.116Z,30.02
2022-08-12T10:40:10.159Z,30.07
2022-08-12T10:41:03.933Z,29.89
2022-08-12T10:42:02.124Z,30.03
2022-08-12T10:43:02.063Z,29.96
2022-08-12T10:44:02.055Z,29.92
2022-08-12T10:45:02.080Z,29.99
2022-08-12T10:46:02.036Z,29.84
2022-08-12T10:47:03.013Z,30.08
2022-08-12T10:48:21.469Z,30.05
2022-08-12T10:49:07.061Z,29.97
2022-08-12T10:50:28.107Z,29.99
2022-08-12T10:51:49.007Z,30.19
2022-08-12T10:52:33.341Z,30.43
2022-08-12T10:53:02.941Z,30.38
2022-08-12T10:54:02.942Z,30.40
2022-08-12T10:55:01.932Z,30.46
2022-08-12T10:56:02.938Z,30.36
2022-08-12T10:57:01.904Z,30.24
2022-08-12T10:58:15.609Z,30.29
2022-08-12T10:59:02.896Z,30.07
2022-08-12T11:00:30.877Z,30.18
2022-08-12T11:01:50.567Z,30.37
2022-08-12T11:04:22.960Z,30.24
2022-08-12T11:04:23.462Z,30.46
2022-08-12T11:04:24.604Z,30.09
2022-08-12T11:07:08.080Z,30.21
2022-08-12T11:07:09.386Z,30.36
2022-08-12T11:08:36.295Z,30.19
2022-08-12T11:08:37.928Z,30.09
2022-08-12T11:09:07.300Z,30.27
2022-08-12T11:10:03.207Z,30.36
2022-08-12T11:11:02.254Z,30.52
2022-08-12T11:12:36.833Z,30.56
2022-08-12T11:13:03.125Z,30.37
2022-08-12T11:14:02.710Z,30.14
2022-08-12T11:15:14.750Z,29.60
2022-08-12T11:16:21.627Z,29.72
2022-08-12T11:17:34.898Z,29.96
2022-08-12T11:18:03.110Z,30.12
2022-08-12T11:19:02.686Z,30.31
2022-08-12T11:20:02.110Z,30.45
2022-08-12T11:21:01.639Z,30.62
2022-08-12T11:22:03.257Z,30.65
2022-08-12T11:23:04.072Z,30.76
2022-08-12T11:24:01.769Z,30.96
2022-08-12T11:25:01.581Z,30.98
2022-08-12T11:26:06.026Z,30.86
2022-08-12T11:27:01.753Z,30.90
2022-08-12T11:28:02.552Z,30.86
2022-08-12T11:29:05.883Z,30.90
2022-08-12T11:30:06.962Z,30.83
2022-08-12T11:31:02.534Z,30.80
2022-08-12T11:32:02.307Z,30.61
2022-08-12T11:33:01.492Z,30.11
2022-08-12T11:34:04.502Z,30.31
2022-08-12T11:35:01.675Z,30.52
2022-08-12T11:36:01.485Z,30.62
2022-08-12T11:37:01.416Z,30.76
2022-08-12T11:38:01.576Z,30.78
2022-08-12T11:39:04.368Z,30.53
2022-08-12T11:40:01.377Z,30.64
2022-08-12T11:41:01.415Z,30.78
2022-08-12T11:42:01.367Z,30.64
2022-08-12T11:43:18.987Z,30.47
2022-08-12T11:44:36.349Z,30.40
2022-08-12T11:45:02.387Z,30.36
2022-08-12T11:46:01.332Z,30.54
2022-08-12T11:47:01.325Z,30.62
2022-08-12T11:48:01.291Z,30.62
2022-08-12T11:49:01.312Z,30.78
2022-08-12T11:50:01.299Z,30.91
2022-08-12T11:51:01.265Z,30.91
2022-08-12T11:52:01.286Z,31.08
2022-08-12T11:53:01.246Z,31.08
2022-08-12T11:54:01.496Z,31.24
2022-08-12T11:55:01.225Z,30.93
2022-08-12T11:56:01.236Z,30.81
2022-08-12T11:57:02.416Z,31.05
2022-08-12T11:58:36.610Z,31.26
2022-08-12T12:02:01.207Z,31.28
2022-08-12T12:02:01.679Z,31.40
2022-08-12T12:02:04.986Z,31.30
2022-08-12T12:03:01.193Z,31.43
2022-08-12T12:04:01.161Z,31.05
2022-08-12T12:05:01.113Z,30.86
2022-08-12T12:06:01.110Z,30.74
2022-08-12T12:07:07.523Z,30.89
2022-08-12T12:08:37.913Z,30.96
2022-08-12T12:09:02.106Z,31.04
2022-08-12T12:10:01.078Z,31.13
2022-08-12T12:11:01.057Z,31.27
2022-08-12T12:12:01.041Z,31.18
2022-08-12T12:13:01.030Z,30.93
2022-08-12T12:14:08.842Z,31.04
2022-08-12T12:15:06.944Z,31.04
2022-08-12T12:16:02.005Z,31.01
2022-08-12T12:17:01.002Z,31.18
2022-08-12T12:18:00.992Z,31.27
2022-08-12T12:19:00.966Z,31.24
2022-08-12T12:20:00.969Z,31.28
2022-08-12T12:21:01.043Z,31.08
2022-08-12T12:22:00.939Z,31.28
2022-08-12T12:23:00.938Z,31.35
2022-08-12T12:24:01.018Z,31.50
2022-08-12T12:25:13.303Z,31.58
2022-08-12T12:26:08.163Z,31.48
2022-08-12T12:27:01.884Z,31.27
2022-08-12T12:28:06.194Z,31.15
2022-08-12T12:29:03.419Z,31.15
2022-08-12T12:30:19.169Z,31.02
2022-08-12T12:31:01.845Z,30.81
2022-08-12T12:32:10.502Z,30.59
2022-08-12T12:33:01.822Z,30.36
2022-08-12T12:34:00.825Z,30.14
2022-08-12T12:35:44.305Z,29.94
2022-08-12T12:36:17.563Z,29.96
2022-08-12T12:37:01.806Z,29.93
2022-08-12T12:38:04.875Z,29.97
2022-08-12T12:39:01.758Z,30.19
2022-08-12T12:40:00.778Z,30.38
2022-08-12T12:41:14.638Z,30.64
2022-08-12T12:42:43.311Z,30.71
2022-08-12T12:43:05.002Z,30.76
2022-08-12T12:44:04.111Z,30.74
2022-08-12T12:45:00.692Z,30.84
2022-08-12T12:46:00.714Z,30.78
2022-08-12T12:47:00.941Z,30.72
2022-08-12T12:48:00.708Z,30.83
2022-08-12T12:49:00.655Z,30.86
2022-08-12T12:50:01.643Z,31.04
2022-08-12T12:51:00.633Z,31.26
2022-08-12T12:52:18.705Z,31.08
2022-08-12T12:53:01.647Z,31.05
2022-08-12T12:54:07.070Z,31.15
2022-08-12T12:55:01.593Z,30.90